sensor_id;sensor_type;location;lat;lon;timestamp;P1;durP1;ratioP1;P2;durP2;ratioP2
16516;SDS011;8371;52.272;9.746;2022-09-02T00:01:13;0.50;;;0.30;;
16516;SDS011;8371;52.272;9.746;2022-09-02T00:03:32;0.23;;;0.23;;
16516;SDS011;8371;52.272;9.746;2022-09-02T00:05:59;0.20;;;0.20;;
16516;SDS011;8371;52.272;9.746;2022-09-02T00:08:26;0.73;;;0.40;;
16516;SDS011;8371;52.272;9.746;2022-09-02T00:10:52;0.30;;;0.30;;
16516;SDS011;8371;52.272;9.746;2022-09-02T00:13:18;0.70;;;0.23;;
16516;SDS011;8371;52.272;9.746;2022-09-02T00:15:46;0.20;;;0.20;;
16516;SDS011;8371;52.272;9.746;2022-09-02T00:18:13;0.70;;;0.30;;
16516;SDS011;8371;52.272;9.746;2022-09-02T00:20:41;0.20;;;0.20;;
16516;SDS011;8371;52.272;9.746;2022-09-02T00:23:09;0.30;;;0.30;;
16516;SDS011;8371;52.272;9.746;2022-09-02T00:25:36;0.40;;;0.40;;
16516;SDS011;8371;52.272;9.746;2022-09-02T00:28:03;0.77;;;0.20;;
16516;SDS011;8371;52.272;9.746;2022-09-02T00:30:30;0.20;;;0.20;;
16516;SDS011;8371;52.272;9.746;2022-09-02T00:32:56;0.20;;;0.20;;
16516;SDS011;8371;52.272;9.746;2022-09-02T00:35:21;0.40;;;0.40;;
16516;SDS011;8371;52.272;9.746;2022-09-02T00:37:47;0.30;;;0.30;;
16516;SDS011;8371;52.272;9.746;2022-09-02T00:40:13;0.30;;;0.30;;
16516;SDS011;8371;52.272;9.746;2022-09-02T00:42:40;0.23;;;0.23;;
16516;SDS011;8371;52.272;9.746;2022-09-02T00:45:07;0.30;;;0.30;;
16516;SDS011;8371;52.272;9.746;2022-09-02T00:47:35;0.30;;;0.30;;
16516;SDS011;8371;52.272;9.746;2022-09-02T00:50:03;0.23;;;0.23;;
16516;SDS011;8371;52.272;9.746;2022-09-02T00:52:34;0.20;;;0.20;;
16516;SDS011;8371;52.272;9.746;2022-09-02T00:55:15;1.23;;;0.40;;
16516;SDS011;8371;52.272;9.746;2022-09-02T00:57:52;0.53;;;0.30;;
16516;SDS011;8371;52.272;9.746;2022-09-02T01:00:22;0.20;;;0.20;;
16516;SDS011;8371;52.272;9.746;2022-09-02T01:02:52;0.30;;;0.30;;
16516;SDS011;8371;52.272;9.746;2022-09-02T01:05:22;0.20;;;0.20;;
16516;SDS011;8371;52.272;9.746;2022-09-02T01:07:50;0.20;;;0.20;;
16516;SDS011;8371;52.272;9.746;2022-09-02T01:10:23;0.30;;;0.30;;
16516;SDS011;8371;52.272;9.746;2022-09-02T01:12:57;0.20;;;0.20;;
16516;SDS011;8371;52.272;9.746;2022-09-02T01:15:25;0.20;;;0.20;;
16516;SDS011;8371;52.272;9.746;2022-09-02T01:17:51;2.10;;;0.37;;
16516;SDS011;8371;52.272;9.746;2022-09-02T01:20:19;0.20;;;0.20;;
16516;SDS011;8371;52.272;9.746;2022-09-02T01:22:46;0.20;;;0.20;;
16516;SDS011;8371;52.272;9.746;2022-09-02T01:25:15;0.30;;;0.30;;
16516;SDS011;8371;52.272;9.746;2022-09-02T01:27:43;0.30;;;0.30;;
16516;SDS011;8371;52.272;9.746;2022-09-02T01:30:11;0.50;;;0.30;;
16516;SDS011;8371;52.272;9.746;2022-09-02T01:32:39;0.23;;;0.23;;
16516;SDS011;8371;52.272;9.746;2022-09-02T01:35:05;0.33;;;0.33;;
16516;SDS011;8371;52.272;9.746;2022-09-02T01:37:32;0.30;;;0.30;;
16516;SDS011;8371;52.272;9.746;2022-09-02T01:39:58;0.40;;;0.40;;
16516;SDS011;8371;52.272;9.746;2022-09-02T01:42:24;0.37;;;0.37;;
16516;SDS011;8371;52.272;9.746;2022-09-02T01:44:50;0.13;;;0.13;;
16516;SDS011;8371;52.272;9.746;2022-09-02T01:47:18;0.27;;;0.27;;
16516;SDS011;8371;52.272;9.746;2022-09-02T01:49:45;0.33;;;0.33;;
16516;SDS011;8371;52.272;9.746;2022-09-02T01:52:11;0.30;;;0.30;;
16516;SDS011;8371;52.272;9.746;2022-09-02T01:54:38;1.07;;;0.33;;
16516;SDS011;8371;52.272;9.746;2022-09-02T01:57:04;0.37;;;0.37;;
16516;SDS011;8371;52.272;9.746;2022-09-02T01:59:29;0.50;;;0.50;;
16516;SDS011;8371;52.272;9.746;2022-09-02T02:01:56;1.70;;;0.30;;
16516;SDS011;8371;52.272;9.746;2022-09-02T02:04:21;0.30;;;0.30;;
16516;SDS011;8371;52.272;9.746;2022-09-02T02:06:49;0.40;;;0.40;;
16516;SDS011;8371;52.272;9.746;2022-09-02T02:09:16;0.27;;;0.27;;
16516;SDS011;8371;52.272;9.746;2022-09-02T02:11:43;2.77;;;0.50;;
16516;SDS011;8371;52.272;9.746;2022-09-02T02:14:10;0.17;;;0.17;;
16516;SDS011;8371;52.272;9.746;2022-09-02T02:16:36;0.20;;;0.20;;
16516;SDS011;8371;52.272;9.746;2022-09-02T02:19:02;0.23;;;0.23;;
16516;SDS011;8371;52.272;9.746;2022-09-02T02:21:29;0.30;;;0.30;;
16516;SDS011;8371;52.272;9.746;2022-09-02T02:23:55;0.20;;;0.20;;
16516;SDS011;8371;52.272;9.746;2022-09-02T02:26:22;0.27;;;0.23;;
16516;SDS011;8371;52.272;9.746;2022-09-02T02:28:48;0.40;;;0.40;;
16516;SDS011;8371;52.272;9.746;2022-09-02T02:31:14;0.20;;;0.20;;
16516;SDS011;8371;52.272;9.746;2022-09-02T02:33:39;0.40;;;0.40;;
16516;SDS011;8371;52.272;9.746;2022-09-02T02:36:06;0.50;;;0.50;;
16516;SDS011;8371;52.272;9.746;2022-09-02T02:38:33;0.30;;;0.30;;
16516;SDS011;8371;52.272;9.746;2022-09-02T02:41:00;0.43;;;0.43;;
16516;SDS011;8371;52.272;9.746;2022-09-02T02:43:28;0.53;;;0.30;;
16516;SDS011;8371;52.272;9.746;2022-09-02T02:45:53;0.27;;;0.27;;
16516;SDS011;8371;52.272;9.746;2022-09-02T02:48:20;0.20;;;0.20;;
16516;SDS011;8371;52.272;9.746;2022-09-02T02:50:46;3.23;;;0.33;;
16516;SDS011;8371;52.272;9.746;2022-09-02T02:53:12;0.53;;;0.53;;
16516;SDS011;8371;52.272;9.746;2022-09-02T02:55:38;0.20;;;0.20;;
16516;SDS011;8371;52.272;9.746;2022-09-02T02:58:04;0.43;;;0.33;;
16516;SDS011;8371;52.272;9.746;2022-09-02T03:00:31;0.30;;;0.30;;
16516;SDS011;8371;52.272;9.746;2022-09-02T03:02:59;0.30;;;0.30;;
16516;SDS011;8371;52.272;9.746;2022-09-02T03:05:26;0.30;;;0.30;;
16516;SDS011;8371;52.272;9.746;2022-09-02T03:07:53;2.00;;;0.37;;
16516;SDS011;8371;52.272;9.746;2022-09-02T03:10:19;0.30;;;0.30;;
16516;SDS011;8371;52.272;9.746;2022-09-02T03:13:07;0.40;;;0.40;;
16516;SDS011;8371;52.272;9.746;2022-09-02T03:15:34;0.30;;;0.30;;
16516;SDS011;8371;52.272;9.746;2022-09-02T03:18:02;0.30;;;0.30;;
16516;SDS011;8371;52.272;9.746;2022-09-02T03:20:27;0.30;;;0.30;;
16516;SDS011;8371;52.272;9.746;2022-09-02T03:22:54;1.80;;;0.30;;
16516;SDS011;8371;52.272;9.746;2022-09-02T03:25:21;0.40;;;0.40;;
16516;SDS011;8371;52.272;9.746;2022-09-02T03:27:48;1.10;;;0.30;;
16516;SDS011;8371;52.272;9.746;2022-09-02T03:30:16;0.40;;;0.40;;
16516;SDS011;8371;52.272;9.746;2022-09-02T03:32:43;0.30;;;0.30;;
16516;SDS011;8371;52.272;9.746;2022-09-02T03:35:10;5.73;;;0.70;;
16516;SDS011;8371;52.272;9.746;2022-09-02T03:37:38;3.10;;;0.30;;
16516;SDS011;8371;52.272;9.746;2022-09-02T03:40:04;0.40;;;0.40;;
16516;SDS011;8371;52.272;9.746;2022-09-02T03:42:33;0.40;;;0.40;;
16516;SDS011;8371;52.272;9.746;2022-09-02T03:44:59;0.40;;;0.40;;
16516;SDS011;8371;52.272;9.746;2022-09-02T03:47:25;0.40;;;0.40;;
16516;SDS011;8371;52.272;9.746;2022-09-02T03:49:52;0.30;;;0.30;;
16516;SDS011;8371;52.272;9.746;2022-09-02T03:52:18;3.53;;;0.43;;
16516;SDS011;8371;52.272;9.746;2022-09-02T03:54:44;1.37;;;0.43;;
16516;SDS011;8371;52.272;9.746;2022-09-02T03:57:10;0.40;;;0.40;;
16516;SDS011;8371;52.272;9.746;2022-09-02T03:59:35;0.40;;;0.40;;
16516;SDS011;8371;52.272;9.746;2022-09-02T04:02:01;0.50;;;0.50;;
16516;SDS011;8371;52.272;9.746;2022-09-02T04:04:27;0.37;;;0.37;;
16516;SDS011;8371;52.272;9.746;2022-09-02T04:06:53;0.40;;;0.40;;
16516;SDS011;8371;52.272;9.746;2022-09-02T04:09:19;0.30;;;0.30;;
16516;SDS011;8371;52.272;9.746;2022-09-02T04:11:46;0.40;;;0.40;;
16516;SDS011;8371;52.272;9.746;2022-09-02T04:14:12;0.30;;;0.30;;
16516;SDS011;8371;52.272;9.746;2022-09-02T04:16:38;0.80;;;0.40;;
16516;SDS011;8371;52.272;9.746;2022-09-02T04:19:04;0.50;;;0.50;;
16516;SDS011;8371;52.272;9.746;2022-09-02T04:21:31;0.90;;;0.50;;
16516;SDS011;8371;52.272;9.746;2022-09-02T04:23:59;0.53;;;0.53;;
16516;SDS011;8371;52.272;9.746;2022-09-02T04:26:24;0.43;;;0.43;;
16516;SDS011;8371;52.272;9.746;2022-09-02T04:28:50;0.47;;;0.47;;
16516;SDS011;8371;52.272;9.746;2022-09-02T04:31:19;0.50;;;0.50;;
16516;SDS011;8371;52.272;9.746;2022-09-02T04:33:46;0.50;;;0.50;;
16516;SDS011;8371;52.272;9.746;2022-09-02T04:36:13;1.43;;;0.43;;
16516;SDS011;8371;52.272;9.746;2022-09-02T04:38:40;0.50;;;0.40;;
16516;SDS011;8371;52.272;9.746;2022-09-02T04:41:07;0.50;;;0.50;;
16516;SDS011;8371;52.272;9.746;2022-09-02T04:43:35;0.50;;;0.50;;
16516;SDS011;8371;52.272;9.746;2022-09-02T04:46:03;0.53;;;0.53;;
16516;SDS011;8371;52.272;9.746;2022-09-02T04:48:30;2.87;;;0.57;;
16516;SDS011;8371;52.272;9.746;2022-09-02T04:50:56;2.30;;;0.97;;
16516;SDS011;8371;52.272;9.746;2022-09-02T04:53:22;0.57;;;0.57;;
16516;SDS011;8371;52.272;9.746;2022-09-02T04:55:48;0.40;;;0.40;;
16516;SDS011;8371;52.272;9.746;2022-09-02T04:58:14;0.50;;;0.50;;
16516;SDS011;8371;52.272;9.746;2022-09-02T05:00:41;0.47;;;0.47;;
16516;SDS011;8371;52.272;9.746;2022-09-02T05:03:07;0.53;;;0.50;;
16516;SDS011;8371;52.272;9.746;2022-09-02T05:05:33;0.57;;;0.57;;
16516;SDS011;8371;52.272;9.746;2022-09-02T05:07:59;1.70;;;0.50;;
16516;SDS011;8371;52.272;9.746;2022-09-02T05:10:27;0.60;;;0.60;;
16516;SDS011;8371;52.272;9.746;2022-09-02T05:12:53;2.00;;;0.50;;
16516;SDS011;8371;52.272;9.746;2022-09-02T05:15:19;1.10;;;0.50;;
16516;SDS011;8371;52.272;9.746;2022-09-02T05:17:45;0.50;;;0.50;;
16516;SDS011;8371;52.272;9.746;2022-09-02T05:20:11;0.50;;;0.50;;
16516;SDS011;8371;52.272;9.746;2022-09-02T05:22:37;4.00;;;0.50;;
16516;SDS011;8371;52.272;9.746;2022-09-02T05:25:04;2.10;;;0.80;;
16516;SDS011;8371;52.272;9.746;2022-09-02T05:27:32;2.23;;;0.50;;
16516;SDS011;8371;52.272;9.746;2022-09-02T05:29:58;0.80;;;0.80;;
16516;SDS011;8371;52.272;9.746;2022-09-02T05:32:24;1.90;;;0.70;;
16516;SDS011;8371;52.272;9.746;2022-09-02T05:34:52;0.40;;;0.40;;
16516;SDS011;8371;52.272;9.746;2022-09-02T05:37:19;0.37;;;0.37;;
16516;SDS011;8371;52.272;9.746;2022-09-02T05:39:45;0.50;;;0.50;;
16516;SDS011;8371;52.272;9.746;2022-09-02T05:42:11;0.70;;;0.70;;
16516;SDS011;8371;52.272;9.746;2022-09-02T05:44:37;0.70;;;0.57;;
16516;SDS011;8371;52.272;9.746;2022-09-02T05:47:03;0.47;;;0.47;;
16516;SDS011;8371;52.272;9.746;2022-09-02T05:49:29;0.70;;;0.70;;
16516;SDS011;8371;52.272;9.746;2022-09-02T05:51:57;0.63;;;0.63;;
16516;SDS011;8371;52.272;9.746;2022-09-02T05:54:25;0.70;;;0.70;;
16516;SDS011;8371;52.272;9.746;2022-09-02T05:56:56;0.63;;;0.63;;
16516;SDS011;8371;52.272;9.746;2022-09-02T05:59:24;0.60;;;0.60;;
16516;SDS011;8371;52.272;9.746;2022-09-02T06:01:51;0.57;;;0.57;;
16516;SDS011;8371;52.272;9.746;2022-09-02T06:04:18;0.70;;;0.70;;
16516;SDS011;8371;52.272;9.746;2022-09-02T06:06:44;1.13;;;0.57;;
16516;SDS011;8371;52.272;9.746;2022-09-02T06:09:11;0.70;;;0.70;;
16516;SDS011;8371;52.272;9.746;2022-09-02T06:11:39;0.70;;;0.70;;
16516;SDS011;8371;52.272;9.746;2022-09-02T06:14:07;0.63;;;0.63;;
16516;SDS011;8371;52.272;9.746;2022-09-02T06:16:34;0.50;;;0.50;;
16516;SDS011;8371;52.272;9.746;2022-09-02T06:19:01;0.60;;;0.60;;
16516;SDS011;8371;52.272;9.746;2022-09-02T06:21:28;0.57;;;0.57;;
16516;SDS011;8371;52.272;9.746;2022-09-02T06:23:54;0.80;;;0.80;;
16516;SDS011;8371;52.272;9.746;2022-09-02T06:26:20;0.73;;;0.73;;
16516;SDS011;8371;52.272;9.746;2022-09-02T06:28:46;0.60;;;0.60;;
16516;SDS011;8371;52.272;9.746;2022-09-02T06:31:13;2.10;;;0.60;;
16516;SDS011;8371;52.272;9.746;2022-09-02T06:33:44;0.60;;;0.60;;
16516;SDS011;8371;52.272;9.746;2022-09-02T06:36:12;0.63;;;0.63;;
16516;SDS011;8371;52.272;9.746;2022-09-02T06:38:40;1.53;;;0.73;;
16516;SDS011;8371;52.272;9.746;2022-09-02T06:41:13;0.60;;;0.60;;
16516;SDS011;8371;52.272;9.746;2022-09-02T06:43:39;0.70;;;0.70;;
16516;SDS011;8371;52.272;9.746;2022-09-02T06:46:05;0.70;;;0.70;;
16516;SDS011;8371;52.272;9.746;2022-09-02T06:48:32;0.90;;;0.90;;
16516;SDS011;8371;52.272;9.746;2022-09-02T06:50:58;0.70;;;0.70;;
16516;SDS011;8371;52.272;9.746;2022-09-02T06:53:25;0.40;;;0.40;;
16516;SDS011;8371;52.272;9.746;2022-09-02T06:55:51;0.57;;;0.57;;
16516;SDS011;8371;52.272;9.746;2022-09-02T06:58:17;0.60;;;0.60;;
16516;SDS011;8371;52.272;9.746;2022-09-02T07:00:43;0.93;;;0.93;;
16516;SDS011;8371;52.272;9.746;2022-09-02T07:03:09;0.57;;;0.57;;
16516;SDS011;8371;52.272;9.746;2022-09-02T07:05:58;0.40;;;0.40;;
16516;SDS011;8371;52.272;9.746;2022-09-02T07:08:26;0.63;;;0.63;;
16516;SDS011;8371;52.272;9.746;2022-09-02T07:10:53;0.70;;;0.70;;
16516;SDS011;8371;52.272;9.746;2022-09-02T07:13:19;0.70;;;0.70;;
16516;SDS011;8371;52.272;9.746;2022-09-02T07:15:44;1.43;;;0.80;;
16516;SDS011;8371;52.272;9.746;2022-09-02T07:18:10;0.70;;;0.70;;
16516;SDS011;8371;52.272;9.746;2022-09-02T07:20:36;0.60;;;0.53;;
16516;SDS011;8371;52.272;9.746;2022-09-02T07:23:02;0.73;;;0.73;;
16516;SDS011;8371;52.272;9.746;2022-09-02T07:25:28;0.60;;;0.60;;
16516;SDS011;8371;52.272;9.746;2022-09-02T07:27:54;0.87;;;0.87;;
16516;SDS011;8371;52.272;9.746;2022-09-02T07:30:20;1.50;;;0.80;;
16516;SDS011;8371;52.272;9.746;2022-09-02T07:32:46;1.07;;;1.07;;
16516;SDS011;8371;52.272;9.746;2022-09-02T07:35:12;2.57;;;1.17;;
16516;SDS011;8371;52.272;9.746;2022-09-02T07:37:38;0.80;;;0.80;;
16516;SDS011;8371;52.272;9.746;2022-09-02T07:40:04;1.00;;;1.00;;
16516;SDS011;8371;52.272;9.746;2022-09-02T07:42:32;2.00;;;0.87;;
16516;SDS011;8371;52.272;9.746;2022-09-02T07:44:57;1.13;;;1.13;;
16516;SDS011;8371;52.272;9.746;2022-09-02T07:47:23;1.00;;;1.00;;
16516;SDS011;8371;52.272;9.746;2022-09-02T07:49:49;1.23;;;1.23;;
16516;SDS011;8371;52.272;9.746;2022-09-02T07:52:14;1.17;;;1.17;;
16516;SDS011;8371;52.272;9.746;2022-09-02T07:54:41;1.23;;;1.13;;
16516;SDS011;8371;52.272;9.746;2022-09-02T07:57:07;1.07;;;1.00;;
16516;SDS011;8371;52.272;9.746;2022-09-02T07:59:32;0.93;;;0.93;;
16516;SDS011;8371;52.272;9.746;2022-09-02T08:01:58;1.13;;;1.07;;
16516;SDS011;8371;52.272;9.746;2022-09-02T08:04:25;0.90;;;0.90;;
16516;SDS011;8371;52.272;9.746;2022-09-02T08:06:56;1.37;;;1.27;;
16516;SDS011;8371;52.272;9.746;2022-09-02T08:09:22;1.10;;;1.10;;
16516;SDS011;8371;52.272;9.746;2022-09-02T08:11:49;1.60;;;1.20;;
16516;SDS011;8371;52.272;9.746;2022-09-02T08:14:17;1.10;;;1.10;;
16516;SDS011;8371;52.272;9.746;2022-09-02T08:16:45;1.20;;;1.20;;
16516;SDS011;8371;52.272;9.746;2022-09-02T08:19:12;1.10;;;1.10;;
16516;SDS011;8371;52.272;9.746;2022-09-02T08:21:38;1.10;;;1.10;;
16516;SDS011;8371;52.272;9.746;2022-09-02T08:24:03;1.10;;;1.10;;
16516;SDS011;8371;52.272;9.746;2022-09-02T08:26:30;0.93;;;0.93;;
16516;SDS011;8371;52.272;9.746;2022-09-02T08:28:56;1.07;;;1.07;;
16516;SDS011;8371;52.272;9.746;2022-09-02T08:31:22;2.47;;;1.23;;
16516;SDS011;8371;52.272;9.746;2022-09-02T08:33:48;0.90;;;0.90;;
16516;SDS011;8371;52.272;9.746;2022-09-02T08:36:14;2.00;;;1.20;;
16516;SDS011;8371;52.272;9.746;2022-09-02T08:38:40;0.80;;;0.80;;
16516;SDS011;8371;52.272;9.746;2022-09-02T08:41:26;1.40;;;1.40;;
16516;SDS011;8371;52.272;9.746;2022-09-02T08:43:55;2.47;;;1.00;;
16516;SDS011;8371;52.272;9.746;2022-09-02T08:46:24;1.10;;;1.10;;
16516;SDS011;8371;52.272;9.746;2022-09-02T08:48:52;1.97;;;1.00;;
16516;SDS011;8371;52.272;9.746;2022-09-02T08:51:41;0.80;;;0.80;;
16516;SDS011;8371;52.272;9.746;2022-09-02T08:57:03;1.30;;;1.20;;
16516;SDS011;8371;52.272;9.746;2022-09-02T08:59:29;1.83;;;1.10;;
16516;SDS011;8371;52.272;9.746;2022-09-02T09:02:04;1.10;;;1.10;;
16516;SDS011;8371;52.272;9.746;2022-09-02T09:10:17;0.93;;;0.93;;
16516;SDS011;8371;52.272;9.746;2022-09-02T09:12:57;1.27;;;0.90;;
16516;SDS011;8371;52.272;9.746;2022-09-02T09:15:39;0.97;;;0.83;;
16516;SDS011;8371;52.272;9.746;2022-09-02T09:18:18;1.40;;;0.70;;
16516;SDS011;8371;52.272;9.746;2022-09-02T09:20:46;1.70;;;0.83;;
16516;SDS011;8371;52.272;9.746;2022-09-02T09:26:03;1.00;;;0.80;;
16516;SDS011;8371;52.272;9.746;2022-09-02T09:28:27;0.73;;;0.73;;
16516;SDS011;8371;52.272;9.746;2022-09-02T09:30:53;11.53;;;0.80;;
16516;SDS011;8371;52.272;9.746;2022-09-02T09:33:20;0.60;;;0.60;;
16516;SDS011;8371;52.272;9.746;2022-09-02T09:35:48;2.83;;;0.70;;
16516;SDS011;8371;52.272;9.746;2022-09-02T09:38:32;0.77;;;0.77;;
16516;SDS011;8371;52.272;9.746;2022-09-02T09:41:10;0.97;;;0.93;;
16516;SDS011;8371;52.272;9.746;2022-09-02T09:43:38;0.50;;;0.50;;
16516;SDS011;8371;52.272;9.746;2022-09-02T09:46:20;0.70;;;0.70;;
16516;SDS011;8371;52.272;9.746;2022-09-02T09:48:51;0.60;;;0.60;;
16516;SDS011;8371;52.272;9.746;2022-09-02T09:51:17;1.50;;;0.80;;
16516;SDS011;8371;52.272;9.746;2022-09-02T09:53:44;0.50;;;0.50;;
16516;SDS011;8371;52.272;9.746;2022-09-02T09:58:44;0.80;;;0.80;;
16516;SDS011;8371;52.272;9.746;2022-09-02T10:01:12;0.60;;;0.60;;
16516;SDS011;8371;52.272;9.746;2022-09-02T10:06:20;0.93;;;0.40;;
16516;SDS011;8371;52.272;9.746;2022-09-02T10:11:31;0.60;;;0.60;;
16516;SDS011;8371;52.272;9.746;2022-09-02T10:14:04;0.67;;;0.67;;
16516;SDS011;8371;52.272;9.746;2022-09-02T10:19:09;0.60;;;0.60;;
16516;SDS011;8371;52.272;9.746;2022-09-02T10:27:29;0.60;;;0.60;;
16516;SDS011;8371;52.272;9.746;2022-09-02T10:30:14;0.63;;;0.63;;
16516;SDS011;8371;52.272;9.746;2022-09-02T10:32:43;0.70;;;0.70;;
16516;SDS011;8371;52.272;9.746;2022-09-02T10:35:42;0.70;;;0.70;;
16516;SDS011;8371;52.272;9.746;2022-09-02T10:44:10;0.60;;;0.60;;
16516;SDS011;8371;52.272;9.746;2022-09-02T10:47:34;0.80;;;0.80;;
16516;SDS011;8371;52.272;9.746;2022-09-02T10:52:10;3.83;;;0.60;;
16516;SDS011;8371;52.272;9.746;2022-09-02T10:54:43;0.80;;;0.50;;
16516;SDS011;8371;52.272;9.746;2022-09-02T10:57:10;1.50;;;0.70;;
16516;SDS011;8371;52.272;9.746;2022-09-02T11:02:20;1.60;;;0.90;;
16516;SDS011;8371;52.272;9.746;2022-09-02T11:04:50;0.70;;;0.70;;
16516;SDS011;8371;52.272;9.746;2022-09-02T11:07:25;2.60;;;0.70;;
16516;SDS011;8371;52.272;9.746;2022-09-02T11:09:55;0.60;;;0.60;;
16516;SDS011;8371;52.272;9.746;2022-09-02T11:12:39;1.00;;;0.70;;
16516;SDS011;8371;52.272;9.746;2022-09-02T11:18:03;0.97;;;0.80;;
16516;SDS011;8371;52.272;9.746;2022-09-02T11:20:29;0.50;;;0.50;;
16516;SDS011;8371;52.272;9.746;2022-09-02T11:23:03;0.70;;;0.70;;
16516;SDS011;8371;52.272;9.746;2022-09-02T11:25:35;0.57;;;0.57;;
16516;SDS011;8371;52.272;9.746;2022-09-02T11:33:44;1.37;;;0.60;;
16516;SDS011;8371;52.272;9.746;2022-09-02T11:36:09;4.57;;;0.40;;
16516;SDS011;8371;52.272;9.746;2022-09-02T11:38:38;0.67;;;0.67;;
16516;SDS011;8371;52.272;9.746;2022-09-02T11:43:45;0.63;;;0.63;;
16516;SDS011;8371;52.272;9.746;2022-09-02T11:54:22;1.40;;;0.70;;
16516;SDS011;8371;52.272;9.746;2022-09-02T11:56:56;0.77;;;0.60;;
16516;SDS011;8371;52.272;9.746;2022-09-02T12:02:31;0.53;;;0.50;;
16516;SDS011;8371;52.272;9.746;2022-09-02T12:08:03;0.47;;;0.47;;
16516;SDS011;8371;52.272;9.746;2022-09-02T12:16:36;0.37;;;0.37;;
16516;SDS011;8371;52.272;9.746;2022-09-02T12:19:15;0.87;;;0.87;;
16516;SDS011;8371;52.272;9.746;2022-09-02T12:21:15;0.80;;;0.80;;
16516;SDS011;8371;52.272;9.746;2022-09-02T12:28:53;0.73;;;0.73;;
16516;SDS011;8371;52.272;9.746;2022-09-02T12:31:37;0.60;;;0.60;;
16516;SDS011;8371;52.272;9.746;2022-09-02T12:36:54;0.67;;;0.67;;
16516;SDS011;8371;52.272;9.746;2022-09-02T12:44:46;1.40;;;0.63;;
16516;SDS011;8371;52.272;9.746;2022-09-02T12:47:37;0.80;;;0.80;;
16516;SDS011;8371;52.272;9.746;2022-09-02T12:50:30;0.73;;;0.60;;
16516;SDS011;8371;52.272;9.746;2022-09-02T12:55:55;0.60;;;0.40;;
16516;SDS011;8371;52.272;9.746;2022-09-02T12:58:24;0.77;;;0.77;;
16516;SDS011;8371;52.272;9.746;2022-09-02T13:03:39;0.60;;;0.60;;
16516;SDS011;8371;52.272;9.746;2022-09-02T13:14:41;0.90;;;0.90;;
16516;SDS011;8371;52.272;9.746;2022-09-02T13:26:27;2.27;;;0.70;;
16516;SDS011;8371;52.272;9.746;2022-09-02T13:29:10;0.77;;;0.77;;
16516;SDS011;8371;52.272;9.746;2022-09-02T13:32:01;0.60;;;0.60;;
16516;SDS011;8371;52.272;9.746;2022-09-02T13:34:28;3.20;;;0.67;;
16516;SDS011;8371;52.272;9.746;2022-09-02T13:36:55;0.80;;;0.80;;
16516;SDS011;8371;52.272;9.746;2022-09-02T13:39:25;0.80;;;0.80;;
16516;SDS011;8371;52.272;9.746;2022-09-02T13:41:52;0.70;;;0.70;;
16516;SDS011;8371;52.272;9.746;2022-09-02T13:44:26;0.47;;;0.47;;
16516;SDS011;8371;52.272;9.746;2022-09-02T13:47:11;0.50;;;0.50;;
16516;SDS011;8371;52.272;9.746;2022-09-02T13:49:40;0.70;;;0.70;;
16516;SDS011;8371;52.272;9.746;2022-09-02T13:52:17;0.80;;;0.80;;
16516;SDS011;8371;52.272;9.746;2022-09-02T13:54:50;0.63;;;0.63;;
16516;SDS011;8371;52.272;9.746;2022-09-02T13:57:17;0.60;;;0.60;;
16516;SDS011;8371;52.272;9.746;2022-09-02T13:59:47;0.80;;;0.80;;
16516;SDS011;8371;52.272;9.746;2022-09-02T14:02:16;0.70;;;0.70;;
16516;SDS011;8371;52.272;9.746;2022-09-02T14:04:46;0.87;;;0.87;;
16516;SDS011;8371;52.272;9.746;2022-09-02T14:07:14;1.70;;;0.67;;
16516;SDS011;8371;52.272;9.746;2022-09-02T14:09:43;0.50;;;0.50;;
16516;SDS011;8371;52.272;9.746;2022-09-02T14:12:10;1.27;;;0.70;;
16516;SDS011;8371;52.272;9.746;2022-09-02T14:14:36;0.63;;;0.63;;
16516;SDS011;8371;52.272;9.746;2022-09-02T14:17:21;0.50;;;0.50;;
16516;SDS011;8371;52.272;9.746;2022-09-02T14:19:48;1.17;;;0.70;;
16516;SDS011;8371;52.272;9.746;2022-09-02T14:22:20;0.60;;;0.60;;
16516;SDS011;8371;52.272;9.746;2022-09-02T14:24:47;0.60;;;0.60;;
16516;SDS011;8371;52.272;9.746;2022-09-02T14:27:15;0.60;;;0.60;;
16516;SDS011;8371;52.272;9.746;2022-09-02T14:29:44;0.83;;;0.77;;
16516;SDS011;8371;52.272;9.746;2022-09-02T14:32:13;1.67;;;0.80;;
16516;SDS011;8371;52.272;9.746;2022-09-02T14:34:45;0.67;;;0.67;;
16516;SDS011;8371;52.272;9.746;2022-09-02T14:37:13;0.80;;;0.80;;
16516;SDS011;8371;52.272;9.746;2022-09-02T14:42:50;0.80;;;0.80;;
16516;SDS011;8371;52.272;9.746;2022-09-02T14:45:23;0.73;;;0.73;;
16516;SDS011;8371;52.272;9.746;2022-09-02T14:47:51;0.80;;;0.80;;
16516;SDS011;8371;52.272;9.746;2022-09-02T14:50:17;1.63;;;0.80;;
16516;SDS011;8371;52.272;9.746;2022-09-02T14:52:49;1.27;;;0.43;;
16516;SDS011;8371;52.272;9.746;2022-09-02T14:55:38;2.00;;;0.60;;
16516;SDS011;8371;52.272;9.746;2022-09-02T14:58:05;3.10;;;0.50;;
16516;SDS011;8371;52.272;9.746;2022-09-02T15:00:31;0.80;;;0.80;;
16516;SDS011;8371;52.272;9.746;2022-09-02T15:02:57;0.83;;;0.70;;
16516;SDS011;8371;52.272;9.746;2022-09-02T15:05:24;0.53;;;0.53;;
16516;SDS011;8371;52.272;9.746;2022-09-02T15:07:51;1.03;;;0.60;;
16516;SDS011;8371;52.272;9.746;2022-09-02T15:10:16;0.43;;;0.43;;
16516;SDS011;8371;52.272;9.746;2022-09-02T15:12:49;0.50;;;0.50;;
16516;SDS011;8371;52.272;9.746;2022-09-02T15:15:19;0.70;;;0.70;;
16516;SDS011;8371;52.272;9.746;2022-09-02T15:17:45;1.37;;;0.60;;
16516;SDS011;8371;52.272;9.746;2022-09-02T15:20:11;2.63;;;0.60;;
16516;SDS011;8371;52.272;9.746;2022-09-02T15:22:37;0.47;;;0.47;;
16516;SDS011;8371;52.272;9.746;2022-09-02T15:25:03;0.60;;;0.60;;
16516;SDS011;8371;52.272;9.746;2022-09-02T15:27:32;0.60;;;0.50;;
16516;SDS011;8371;52.272;9.746;2022-09-02T15:29:59;0.70;;;0.70;;
16516;SDS011;8371;52.272;9.746;2022-09-02T15:32:25;2.60;;;0.60;;
16516;SDS011;8371;52.272;9.746;2022-09-02T15:34:51;0.67;;;0.67;;
16516;SDS011;8371;52.272;9.746;2022-09-02T15:37:17;0.33;;;0.33;;
16516;SDS011;8371;52.272;9.746;2022-09-02T15:39:43;0.67;;;0.67;;
16516;SDS011;8371;52.272;9.746;2022-09-02T15:42:08;2.20;;;0.47;;
16516;SDS011;8371;52.272;9.746;2022-09-02T15:44:34;0.57;;;0.57;;
16516;SDS011;8371;52.272;9.746;2022-09-02T15:47:00;0.80;;;0.80;;
16516;SDS011;8371;52.272;9.746;2022-09-02T15:49:26;2.47;;;0.90;;
16516;SDS011;8371;52.272;9.746;2022-09-02T15:51:52;1.20;;;0.60;;
16516;SDS011;8371;52.272;9.746;2022-09-02T15:54:19;1.97;;;0.60;;
16516;SDS011;8371;52.272;9.746;2022-09-02T15:56:46;0.63;;;0.60;;
16516;SDS011;8371;52.272;9.746;2022-09-02T15:59:14;0.30;;;0.30;;
16516;SDS011;8371;52.272;9.746;2022-09-02T16:01:46;0.40;;;0.40;;
16516;SDS011;8371;52.272;9.746;2022-09-02T16:04:13;0.30;;;0.30;;
16516;SDS011;8371;52.272;9.746;2022-09-02T16:06:40;1.17;;;0.50;;
16516;SDS011;8371;52.272;9.746;2022-09-02T16:09:11;1.60;;;0.50;;
16516;SDS011;8371;52.272;9.746;2022-09-02T16:11:38;0.43;;;0.43;;
16516;SDS011;8371;52.272;9.746;2022-09-02T16:14:05;0.50;;;0.50;;
16516;SDS011;8371;52.272;9.746;2022-09-02T16:16:31;2.60;;;0.50;;
16516;SDS011;8371;52.272;9.746;2022-09-02T16:18:57;0.60;;;0.60;;
16516;SDS011;8371;52.272;9.746;2022-09-02T16:21:23;0.40;;;0.40;;
16516;SDS011;8371;52.272;9.746;2022-09-02T16:23:50;0.87;;;0.37;;
16516;SDS011;8371;52.272;9.746;2022-09-02T16:28:52;1.23;;;0.67;;
16516;SDS011;8371;52.272;9.746;2022-09-02T16:31:20;0.50;;;0.50;;
16516;SDS011;8371;52.272;9.746;2022-09-02T16:33:52;0.43;;;0.43;;
16516;SDS011;8371;52.272;9.746;2022-09-02T16:36:26;0.37;;;0.37;;
16516;SDS011;8371;52.272;9.746;2022-09-02T16:38:53;0.30;;;0.30;;
16516;SDS011;8371;52.272;9.746;2022-09-02T16:41:21;0.40;;;0.40;;
16516;SDS011;8371;52.272;9.746;2022-09-02T16:43:52;0.37;;;0.37;;
16516;SDS011;8371;52.272;9.746;2022-09-02T16:46:19;0.50;;;0.50;;
16516;SDS011;8371;52.272;9.746;2022-09-02T16:48:45;0.43;;;0.43;;
16516;SDS011;8371;52.272;9.746;2022-09-02T16:51:10;0.40;;;0.40;;
16516;SDS011;8371;52.272;9.746;2022-09-02T16:53:36;0.40;;;0.40;;
16516;SDS011;8371;52.272;9.746;2022-09-02T16:56:03;0.30;;;0.30;;
16516;SDS011;8371;52.272;9.746;2022-09-02T16:58:29;2.93;;;0.40;;
16516;SDS011;8371;52.272;9.746;2022-09-02T17:00:55;0.53;;;0.30;;